This is the latest recevied weather packets stored in our database for station/object SP4MAZ-13. If no packets are shown the sender has not sent any weather packets the latest 10 day(s).
| Time | Temp. | Humidity | Pressure | Rain* | Wind** | Luminosity | Snow |
|---|---|---|---|---|---|---|---|
| 1777926199 | 12.22° C | 99% | 2147.4 hPa | - | - | - | - |
| 1777925896 | 12.22° C | 97% | 2147.4 hPa | - | - | - | - |
| 1777925593 | 12.78° C | 96% | 2147.4 hPa | - | - | - | - |
| 1777925289 | 12.78° C | 92% | 2147.4 hPa | - | - | - | - |
| 1777924986 | 13.33° C | 91% | 2147.4 hPa | - | - | - | - |
| 1777924684 | 13.33° C | 90% | 2147.4 hPa | - | - | - | - |
| 1777924380 | 13.33° C | 89% | 2147.4 hPa | - | - | - | - |
| 1777924077 | 13.89° C | 88% | 2147.4 hPa | - | - | - | - |
| 1777923773 | 13.33° C | 88% | 2147.4 hPa | - | - | - | - |
| 1777923469 | 13.89° C | 84% | 2147.4 hPa | - | - | - | - |
| 1777923166 | 14.44° C | 84% | 2147.4 hPa | - | - | - | - |
| 1777922862 | 14.44° C | 83% | 2147.4 hPa | - | - | - | - |
| 1777922561 | 14.44° C | 82% | 2147.4 hPa | - | - | - | - |
| 1777922258 | 15° C | 80% | 2147.4 hPa | - | - | - | - |
| 1777921955 | 15° C | 81% | 2147.4 hPa | - | - | - | - |
| 1777921651 | 15.56° C | 79% | 2147.4 hPa | - | - | - | - |
| 1777921347 | 15.56° C | 79% | 2147.4 hPa | - | - | - | - |
| 1777921044 | 15.56° C | 80% | 2147.4 hPa | - | - | - | - |
| 1777920742 | 16.11° C | 77% | 2147.4 hPa | - | - | - | - |
| 1777920440 | 16.11° C | 78% | 2147.4 hPa | - | - | - | - |
| 1777920136 | 15.56° C | 80% | 2147.4 hPa | - | - | - | - |
| 1777919832 | 15.56° C | 80% | 2147.4 hPa | - | - | - | - |
| 1777919529 | 16.11° C | 75% | 2147.4 hPa | - | - | - | - |
| 1777919225 | 16.11° C | 75% | 2147.4 hPa | - | - | - | - |
| 1777918923 | 16.11° C | 75% | 2147.4 hPa | - | - | - | - |
* Rain since midnight (hover to see other rain measurements)
** Current wind speed in m/s (hover to see current wind gust speed)